Clear Brook, Virginia
Current Conditions -  °F | °C
As of 1:15 PM on Thursday 30 Oct 2014 (Local Time) from KOKV Reporting Station
Overcast Overcast  
Wind Chill: 54°   Ceiling: 5000
Heat Index: 54°   Visibility: 10mi
Dew Point: 30°   Wind: 9mph
Humidity: 41%   Direction: 320°NW
Pressure: 30.07"   Gusts: NA
Location:  39.26°N, 78.1°W
Report Text: KOKV 301715Z AUTO 32008KT 10SM OVC050 12/M01 A3007 RMK AO2
Loading
Personal Weather Stations






























Interactive Weather Map
Tropical Storm Tracking
New forecast layout! Learn more

10-Day Weather Forecast

Advertisements
Track Severe Weather on mobile